Terminal Aerodrome Forecast
Issued by NWS

Home | Current Version | Previous Version | Text Only | Print | Product List | Glossary On
Versions: 1 2 3 4 5 6 7 8 9 10 11 12 13 14 15 16 17 18 19 20
434
FTUS41 KILN 291750
TAFLCK
TAF
KLCK 291750Z 2918/3018 06005KT P6SM SCT025
     FM292100 05005KT P6SM SCT035
     FM300500 08006KT P6SM SCT070
     FM300700 12005KT 5SM BR VCSH BKN060
     FM300900 13005KT P6SM SCT060
     FM301300 18012KT P6SM SCT080
     FM301600 20016G24KT P6SM SCT090=

USA.gov is the U.S. government's official web portal to all federal, state and local government web resources and services.